Portada
METAR-TAF:

METAR-TAF

Aeroports :

Novosibirsk, Rússia

latitud: 55-01N, longitud: 082-38E, altitud: 111 m

Observació

L'informe es va fer fa 36 minuts, a les 11:00 UTC
Vent 6 kt del Sud/Sud-Oest
Temperatura -8°C
Humitat 67%
Pressió 1033 hPa
Visibilitat 10 km o més
sense núvols per sota de 1500 mi sense presència de cumulonimbus.

METAR: UNNT 201100Z 21003MPS CAVOK M08/M13 Q1033 R25/810160 R16/810160 NOSIG RMK QFE764/1019

Hora: 18:36 (11:36 UTC)

Pronòstic

L'informe es va fer fa 36 minuts, a les 11:00 UTC
Pronòstic vàlid del 20 a les 12 UTC al 21 a les 12 UTC
Vent 6 kt del Sud amb ràfegues de 16 kt
Visibilitat 10 km o més
Cel ennuvolat a una alçada de 2000 ft
Temporalment
l' 20 a les 15 UTC al 20 a les 18 UTC
Visibilitat: 3100 m
fum, boirina
Temporalment
l' 20 a les 18 UTC al 21 a les 06 UTC
Visibilitat: 0600 m
Cel ennuvolat a una alçada de 1100 ft
neu, boira gebradora

TAF: UNNT 201100Z 2012/2112 19003G08MPS 9999 BKN020 TEMPO 2015/2018 3100 FU BR TEMPO 2018/2106 0600 -SN FZFG BKN011

Observacions i pronòstics meteorològics de més de 4000 aeroports (METAR i TAF).

Les estacions disponibles són els punts grocs i vermells al mapa.

Posi el ratolí al punt desitjat per veure el nom de l'estació.

Feu clic per veure les observacions i els pronòstics meteorològics.

Per canviar el mapa: feu clic els botons verds amb una creu de color negre per apropar; al botó verd amb un guió per allunyar la imatge; o en les fletxes verdes per a mapes adjacents.


METAR-TAF: